Time;durP1;ratioP1;P1;durP2;ratioP2;P2;SDS_P1;SDS_P2;PMS_P1;PMS_P2;Temp;Humidity;BMP_temperature;BMP_pressure;BME280_temperature;BME280_humidity;BME280_pressure;Samples;Min_cycle;Max_cycle;Signal;HPM_P1;HPM_P2
2023/12/20 00:01:01;;;;;;;2.47;1.13;;;7.40;99.90;;;;;;5061815;28;20370;-35
2023/12/20 00:03:26;;;;;;;7.53;1.50;;;7.40;99.90;;;;;;5062145;28;20020;-34
2023/12/20 00:05:52;;;;;;;4.90;1.50;;;7.40;99.90;;;;;;5060280;28;20078;-35
2023/12/20 00:08:18;;;;;;;2.80;1.63;;;7.40;99.90;;;;;;5061961;28;20029;-34
2023/12/20 00:10:45;;;;;;;4.32;1.60;;;7.40;99.90;;;;;;5062335;28;20031;-35
2023/12/20 00:13:11;;;;;;;4.22;1.60;;;7.40;99.90;;;;;;5061498;28;20021;-40
2023/12/20 00:15:36;;;;;;;3.78;1.35;;;7.40;99.90;;;;;;5061633;28;20438;-35
2023/12/20 00:18:02;;;;;;;2.83;1.30;;;7.40;99.90;;;;;;5061124;28;20545;-35
2023/12/20 00:20:28;;;;;;;6.90;1.90;;;7.30;99.90;;;;;;5059913;28;20044;-35
2023/12/20 00:22:57;;;;;;;3.13;1.35;;;7.40;99.90;;;;;;5060615;28;20547;-35
2023/12/20 00:25:23;;;;;;;6.32;1.80;;;7.40;99.90;;;;;;5061183;28;20040;-35
2023/12/20 00:27:49;;;;;;;5.40;1.95;;;7.40;99.90;;;;;;5060238;28;20016;-35
2023/12/20 00:30:14;;;;;;;9.52;1.98;;;7.40;99.90;;;;;;5061481;28;20035;-35
2023/12/20 00:32:46;;;;;;;6.07;2.03;;;7.40;99.90;;;;;;5061966;28;20028;-36
2023/12/20 00:35:12;;;;;;;7.53;2.20;;;7.30;99.90;;;;;;5061126;28;20154;-34
2023/12/20 00:37:37;;;;;;;4.22;1.90;;;7.30;99.90;;;;;;5061132;28;20020;-35
2023/12/20 00:40:06;;;;;;;8.50;1.92;;;7.20;99.90;;;;;;5060825;28;20628;-36
2023/12/20 00:42:32;;;;;;;5.85;2.38;;;7.20;99.90;;;;;;5060916;28;20103;-36
2023/12/20 00:44:59;;;;;;;6.38;2.22;;;7.20;99.90;;;;;;5060572;28;20051;-35
2023/12/20 00:47:25;;;;;;;4.03;1.55;;;7.20;99.90;;;;;;5060028;28;20453;-35
2023/12/20 00:49:50;;;;;;;8.30;1.83;;;7.20;99.90;;;;;;5060501;28;20024;-35
2023/12/20 00:52:17;;;;;;;5.90;1.92;;;7.10;99.90;;;;;;5061052;28;20776;-35
2023/12/20 00:54:43;;;;;;;7.85;2.42;;;7.10;99.90;;;;;;5059435;28;20054;-36
2023/12/20 00:57:09;;;;;;;6.05;1.75;;;7.10;99.90;;;;;;5060134;28;20071;-36
2023/12/20 00:59:34;;;;;;;9.25;2.65;;;7.10;99.90;;;;;;5060854;28;20821;-37
2023/12/20 01:02:00;;;;;;;7.78;2.13;;;7.00;99.90;;;;;;5059446;28;20141;-36
2023/12/20 01:04:25;;;;;;;7.07;2.15;;;7.00;99.90;;;;;;5059885;28;20068;-36
2023/12/20 01:06:51;;;;;;;3.85;1.58;;;7.10;99.90;;;;;;5060466;28;20150;-36
2023/12/20 01:09:18;;;;;;;5.43;1.85;;;7.00;99.90;;;;;;5060109;28;20036;-36
2023/12/20 01:11:46;;;;;;;3.75;1.45;;;7.00;99.90;;;;;;5060998;28;20052;-35
2023/12/20 01:14:12;;;;;;;7.75;2.47;;;7.00;99.90;;;;;;5059523;28;20013;-36
2023/12/20 01:16:38;;;;;;;4.85;1.67;;;6.90;99.90;;;;;;5059899;28;20036;-34
2023/12/20 01:19:03;;;;;;;6.63;1.90;;;6.90;99.90;;;;;;5059878;28;20142;-36
2023/12/20 01:21:29;;;;;;;7.50;2.28;;;6.90;99.90;;;;;;5060108;28;20612;-35
2023/12/20 01:23:54;;;;;;;5.88;2.60;;;6.90;99.90;;;;;;5059303;28;20120;-37
2023/12/20 01:26:20;;;;;;;10.90;2.00;;;6.90;99.90;;;;;;5060124;28;20016;-36
2023/12/20 01:28:46;;;;;;;8.25;2.60;;;6.90;99.90;;;;;;5060147;28;20067;-34
2023/12/20 01:31:11;;;;;;;7.88;2.60;;;6.90;99.90;;;;;;5059070;28;20066;-35
2023/12/20 01:33:37;;;;;;;10.48;2.75;;;6.80;99.90;;;;;;5060579;28;20020;-34
2023/12/20 01:36:03;;;;;;;11.52;2.50;;;6.80;99.90;;;;;;5059540;28;20048;-34
2023/12/20 01:38:29;;;;;;;9.20;2.25;;;6.80;99.90;;;;;;5059626;28;20028;-35
2023/12/20 01:40:55;;;;;;;6.18;2.30;;;6.80;99.90;;;;;;5059100;28;20035;-34
2023/12/20 01:43:20;;;;;;;5.72;2.58;;;6.80;99.90;;;;;;5058440;28;20025;-35
2023/12/20 01:45:47;;;;;;;6.50;2.50;;;6.80;99.90;;;;;;5059088;28;20033;-35
2023/12/20 01:48:13;;;;;;;7.78;2.30;;;6.80;99.90;;;;;;5059695;28;20032;-35
2023/12/20 01:50:40;;;;;;;5.65;2.00;;;6.80;99.90;;;;;;5058245;28;20090;-35
2023/12/20 01:53:09;;;;;;;5.32;2.10;;;6.80;99.90;;;;;;5058741;28;20048;-34
2023/12/20 01:55:38;;;;;;;5.60;1.90;;;6.80;99.90;;;;;;5059114;28;20611;-36
2023/12/20 01:58:08;;;;;;;6.72;1.90;;;6.80;99.90;;;;;;5058541;28;20031;-35
2023/12/20 02:00:35;;;;;;;4.18;1.70;;;6.80;99.90;;;;;;5059061;28;20021;-34
2023/12/20 02:03:04;;;;;;;4.68;2.00;;;6.80;99.90;;;;;;5060260;28;20036;-35
2023/12/20 02:05:31;;;;;;;8.23;2.55;;;6.80;99.90;;;;;;5058841;28;20040;-34
2023/12/20 02:07:57;;;;;;;7.10;2.17;;;6.80;99.90;;;;;;5059244;28;20113;-35
2023/12/20 02:10:24;;;;;;;6.70;1.70;;;6.90;99.90;;;;;;5060021;28;20032;-36
2023/12/20 02:12:50;;;;;;;9.98;2.15;;;6.90;99.90;;;;;;5058957;28;20081;-36
2023/12/20 02:15:16;;;;;;;8.25;2.60;;;6.90;99.90;;;;;;5059191;28;20052;-35
2023/12/20 02:17:41;;;;;;;6.38;2.20;;;6.90;99.90;;;;;;5059158;28;20166;-35
2023/12/20 02:20:07;;;;;;;5.40;2.10;;;6.90;99.90;;;;;;5058995;28;20120;-35
2023/12/20 02:22:33;;;;;;;6.28;2.50;;;6.80;99.90;;;;;;5059357;28;20028;-35
2023/12/20 02:24:58;;;;;;;6.38;2.08;;;6.80;99.90;;;;;;5059330;28;20045;-35
2023/12/20 02:27:24;;;;;;;7.03;1.83;;;6.80;99.90;;;;;;5058163;28;20124;-34
2023/12/20 02:29:50;;;;;;;12.27;2.60;;;6.80;99.90;;;;;;5058969;28;20029;-35
2023/12/20 02:32:20;;;;;;;5.30;1.90;;;6.80;99.90;;;;;;5058692;28;20112;-35
2023/12/20 02:34:48;;;;;;;4.00;1.67;;;6.90;99.90;;;;;;5058736;28;20211;-35
2023/12/20 02:37:13;;;;;;;3.75;1.58;;;6.90;99.90;;;;;;5059547;28;20031;-35
2023/12/20 02:39:39;;;;;;;4.63;1.50;;;6.90;99.90;;;;;;5058164;28;20057;-35
2023/12/20 02:42:04;;;;;;;5.50;1.50;;;6.90;99.90;;;;;;5058118;28;20592;-34
2023/12/20 02:44:30;;;;;;;4.85;1.40;;;7.00;99.90;;;;;;5058047;28;20046;-35
2023/12/20 02:46:56;;;;;;;4.13;1.38;;;7.00;99.90;;;;;;5057485;28;20392;-35
2023/12/20 02:49:21;;;;;;;7.15;1.85;;;7.00;99.90;;;;;;5059025;28;20032;-34
2023/12/20 02:51:47;;;;;;;5.57;1.60;;;7.00;99.90;;;;;;5058895;28;20028;-34
2023/12/20 02:54:12;;;;;;;5.85;2.13;;;7.00;99.90;;;;;;5058198;28;20467;-35
2023/12/20 02:56:38;;;;;;;7.35;2.30;;;7.00;99.90;;;;;;5059216;28;20032;-36
2023/12/20 02:59:05;;;;;;;8.23;2.65;;;7.10;99.90;;;;;;5058627;28;20028;-36
2023/12/20 03:01:31;;;;;;;7.47;2.20;;;7.10;99.90;;;;;;5058185;28;20044;-36
2023/12/20 03:03:57;;;;;;;8.18;3.28;;;7.10;99.90;;;;;;5058982;28;20028;-36
2023/12/20 03:06:23;;;;;;;9.48;2.25;;;7.10;99.90;;;;;;5058874;28;20130;-36
2023/12/20 03:08:48;;;;;;;11.90;2.83;;;7.10;99.90;;;;;;5057980;28;20043;-36
2023/12/20 03:11:14;;;;;;;7.38;2.00;;;7.10;99.90;;;;;;5058709;28;20032;-36
2023/12/20 03:13:40;;;;;;;5.15;1.65;;;7.10;99.90;;;;;;5059055;28;20901;-36
2023/12/20 03:16:10;;;;;;;7.35;2.20;;;7.10;99.90;;;;;;5057732;28;20806;-36
2023/12/20 03:18:35;;;;;;;5.63;1.88;;;7.10;99.90;;;;;;5058136;28;20908;-36
2023/12/20 03:21:01;;;;;;;6.70;2.25;;;7.10;99.90;;;;;;5058893;28;20029;-35
2023/12/20 03:23:27;;;;;;;7.13;2.10;;;7.00;99.90;;;;;;5057524;28;20492;-36
2023/12/20 03:25:55;;;;;;;7.38;2.10;;;7.00;99.90;;;;;;5060916;28;20465;-34
2023/12/20 03:28:21;;;;;;;6.72;1.75;;;7.00;99.90;;;;;;5062646;28;20385;-35
2023/12/20 03:30:46;;;;;;;7.75;1.90;;;6.90;99.90;;;;;;5061553;28;20539;-35
2023/12/20 03:33:12;;;;;;;7.15;2.45;;;7.00;99.90;;;;;;5061630;28;20406;-35
2023/12/20 03:35:38;;;;;;;7.50;2.65;;;6.90;99.90;;;;;;5062037;28;20491;-35
2023/12/20 03:38:03;;;;;;;8.70;2.50;;;6.90;99.90;;;;;;5061454;28;20140;-35
2023/12/20 03:40:29;;;;;;;7.85;2.67;;;6.90;99.90;;;;;;5061272;28;20059;-35
2023/12/20 03:42:54;;;;;;;9.18;2.10;;;6.90;99.90;;;;;;5061491;28;20037;-35
2023/12/20 03:45:20;;;;;;;8.88;2.03;;;6.90;99.90;;;;;;5061473;28;20103;-36
2023/12/20 03:47:46;;;;;;;8.57;2.00;;;6.90;99.90;;;;;;5061783;28;20039;-37
2023/12/20 03:50:11;;;;;;;5.53;2.10;;;6.90;99.90;;;;;;5060768;28;20040;-36
2023/12/20 03:52:37;;;;;;;14.55;2.38;;;6.90;99.90;;;;;;5061278;28;20571;-36
2023/12/20 03:55:03;;;;;;;8.00;1.70;;;6.90;99.90;;;;;;5061376;28;20039;-35
2023/12/20 03:57:28;;;;;;;7.80;2.17;;;6.90;99.90;;;;;;5061549;28;20024;-36
2023/12/20 03:59:57;;;;;;;5.13;1.80;;;6.90;99.90;;;;;;5060266;28;20020;-36
2023/12/20 04:02:23;;;;;;;6.90;2.10;;;6.90;99.90;;;;;;5061865;28;20028;-36
2023/12/20 04:04:48;;;;;;;5.50;1.80;;;6.90;99.90;;;;;;5060743;28;20032;-36
2023/12/20 04:07:14;;;;;;;9.35;2.05;;;6.90;99.90;;;;;;5061671;28;20029;-36
2023/12/20 04:09:41;;;;;;;7.25;2.20;;;7.00;99.90;;;;;;5060698;28;20041;-36
2023/12/20 04:12:06;;;;;;;8.77;2.20;;;7.00;99.90;;;;;;5060475;28;20502;-36
2023/12/20 04:14:32;;;;;;;5.55;2.30;;;7.00;99.90;;;;;;5061879;28;20045;-35
2023/12/20 04:16:58;;;;;;;9.90;3.22;;;7.00;99.90;;;;;;5060893;28;20157;-35
2023/12/20 04:19:24;;;;;;;7.72;1.98;;;7.00;99.90;;;;;;5060755;28;20433;-35
2023/12/20 04:21:49;;;;;;;7.15;2.25;;;7.10;99.90;;;;;;5061470;28;20020;-35
2023/12/20 04:24:15;;;;;;;9.85;2.40;;;7.10;99.90;;;;;;5061005;28;20028;-34
2023/12/20 04:26:40;;;;;;;9.05;2.40;;;7.10;99.90;;;;;;5060115;28;20039;-35
2023/12/20 04:29:06;;;;;;;8.05;2.50;;;7.20;99.90;;;;;;5061080;28;20052;-34
2023/12/20 04:31:32;;;;;;;7.70;2.30;;;7.20;99.90;;;;;;5060576;28;20437;-35
2023/12/20 04:33:57;;;;;;;7.47;2.20;;;7.20;99.90;;;;;;5060353;28;20692;-35
2023/12/20 04:36:25;;;;;;;9.10;1.70;;;7.20;99.90;;;;;;5059497;28;20036;-35
2023/12/20 04:38:50;;;;;;;8.32;1.95;;;7.20;99.90;;;;;;5062435;28;20051;-39
2023/12/20 04:41:18;;;;;;;5.97;1.88;;;7.20;99.90;;;;;;5062564;28;20024;-36
2023/12/20 04:43:44;;;;;;;8.43;2.45;;;7.20;99.90;;;;;;5061297;28;20147;-34
2023/12/20 04:46:09;;;;;;;10.15;2.50;;;7.20;99.90;;;;;;5059382;28;20848;-34
2023/12/20 04:48:35;;;;;;;5.70;2.03;;;7.30;99.90;;;;;;5060241;28;20056;-35
2023/12/20 04:51:00;;;;;;;10.20;2.35;;;7.30;99.90;;;;;;5060396;28;20024;-35
2023/12/20 04:53:27;;;;;;;7.07;1.77;;;7.20;99.90;;;;;;5059261;28;20728;-35
2023/12/20 04:55:53;;;;;;;5.55;1.90;;;7.20;99.90;;;;;;5060718;28;20107;-35
2023/12/20 04:58:19;;;;;;;10.32;2.22;;;7.20;99.90;;;;;;5060727;28;20103;-34
2023/12/20 05:00:44;;;;;;;5.32;1.67;;;7.30;99.90;;;;;;5059719;28;20052;-36
2023/12/20 05:03:10;;;;;;;8.90;3.30;;;7.30;99.90;;;;;;5059271;28;20047;-35
2023/12/20 05:05:36;;;;;;;9.63;2.47;;;7.40;99.90;;;;;;5059795;28;20090;-36
2023/12/20 05:08:02;;;;;;;9.02;2.15;;;7.40;99.90;;;;;;5059327;28;20047;-36
2023/12/20 05:10:27;;;;;;;10.73;2.50;;;7.40;99.90;;;;;;5060778;28;20106;-35
2023/12/20 05:12:53;;;;;;;7.43;2.00;;;7.40;99.90;;;;;;5059754;28;20028;-36
2023/12/20 05:15:19;;;;;;;11.13;2.90;;;7.40;99.90;;;;;;5059467;28;20032;-35
2023/12/20 05:17:44;;;;;;;6.10;2.03;;;7.50;99.90;;;;;;5060112;28;20111;-36
2023/12/20 05:20:10;;;;;;;9.35;2.33;;;7.50;99.90;;;;;;5060123;28;20075;-36
2023/12/20 05:22:36;;;;;;;9.32;2.35;;;7.50;99.90;;;;;;5058910;28;20146;-35
2023/12/20 05:25:01;;;;;;;6.93;2.38;;;7.50;99.90;;;;;;5059274;28;20075;-36
2023/12/20 05:27:27;;;;;;;6.50;1.63;;;7.60;99.90;;;;;;5059460;28;20486;-36
2023/12/20 05:29:52;;;;;;;9.25;2.10;;;7.60;99.90;;;;;;5059038;28;20515;-36
2023/12/20 05:32:18;;;;;;;6.72;2.08;;;7.60;99.90;;;;;;5059944;28;20016;-36
2023/12/20 05:34:44;;;;;;;11.18;2.75;;;7.60;99.90;;;;;;5059833;28;20036;-36
2023/12/20 05:37:09;;;;;;;9.52;2.33;;;7.60;99.90;;;;;;5058127;28;20693;-35
2023/12/20 05:39:35;;;;;;;7.93;2.05;;;7.70;99.90;;;;;;5058959;28;20036;-40
2023/12/20 05:42:00;;;;;;;11.25;2.05;;;7.60;99.90;;;;;;5060506;28;20028;-35
2023/12/20 05:44:26;;;;;;;9.30;2.28;;;7.70;99.90;;;;;;5059009;28;20040;-35
2023/12/20 05:46:51;;;;;;;13.88;2.45;;;7.70;99.90;;;;;;5060011;28;20027;-36
2023/12/20 05:49:21;;;;;;;15.00;2.67;;;7.70;99.90;;;;;;5058123;28;20123;-36
2023/12/20 05:51:47;;;;;;;11.07;2.08;;;7.70;99.90;;;;;;5060073;28;20771;-35
2023/12/20 05:54:13;;;;;;;10.60;2.47;;;7.70;99.90;;;;;;5059665;28;20044;-35
2023/12/20 05:56:38;;;;;;;11.45;2.40;;;7.70;99.90;;;;;;5058697;28;20021;-34
2023/12/20 05:59:04;;;;;;;11.23;2.35;;;7.80;99.90;;;;;;5059676;28;20028;-35
2023/12/20 06:01:32;;;;;;;11.05;2.50;;;7.70;99.90;;;;;;5059339;28;20093;-38
2023/12/20 06:03:58;;;;;;;13.68;2.70;;;7.80;99.90;;;;;;5058987;28;20029;-36
2023/12/20 06:06:23;;;;;;;10.90;2.58;;;7.80;99.90;;;;;;5059066;28;20032;-36
2023/12/20 06:08:52;;;;;;;8.63;2.03;;;7.80;99.90;;;;;;5059341;28;20017;-36
2023/12/20 06:11:21;;;;;;;11.25;2.58;;;7.80;99.90;;;;;;5058664;28;20025;-35
2023/12/20 06:13:51;;;;;;;7.75;2.13;;;7.80;99.90;;;;;;5058760;28;20059;-35
2023/12/20 06:16:18;;;;;;;7.40;2.15;;;7.80;99.90;;;;;;5059141;28;20044;-35
2023/12/20 06:18:43;;;;;;;10.85;2.45;;;7.80;99.90;;;;;;5058621;28;20024;-35
2023/12/20 06:21:12;;;;;;;7.25;2.00;;;7.90;99.90;;;;;;5059414;28;20021;-36
2023/12/20 06:23:38;;;;;;;10.07;2.80;;;7.90;99.90;;;;;;5059554;28;20040;-35
2023/12/20 06:26:04;;;;;;;10.18;2.47;;;7.90;99.90;;;;;;5058240;28;20166;-35
2023/12/20 06:28:29;;;;;;;7.60;2.25;;;7.80;99.90;;;;;;5059333;28;20132;-35
2023/12/20 06:30:56;;;;;;;7.40;2.55;;;7.90;99.90;;;;;;5059365;28;20078;-35
2023/12/20 06:33:22;;;;;;;10.00;2.70;;;7.80;99.90;;;;;;5059013;28;20047;-35
2023/12/20 06:35:48;;;;;;;6.15;1.95;;;7.80;99.90;;;;;;5059518;28;20040;-36
2023/12/20 06:38:14;;;;;;;10.68;2.30;;;7.90;99.90;;;;;;5059273;28;20445;-35
2023/12/20 06:40:40;;;;;;;9.40;2.97;;;7.90;99.90;;;;;;5058969;28;20024;-35
2023/12/20 06:43:06;;;;;;;11.82;2.30;;;7.90;99.90;;;;;;5059164;28;20055;-36
2023/12/20 06:45:32;;;;;;;10.88;2.50;;;7.90;99.90;;;;;;5059371;28;20033;-35
2023/12/20 06:47:58;;;;;;;12.93;2.83;;;7.90;99.90;;;;;;5061835;28;20024;-35
2023/12/20 06:50:24;;;;;;;14.07;2.67;;;7.90;99.90;;;;;;5071378;28;20029;-36
2023/12/20 06:52:49;;;;;;;12.02;3.00;;;7.90;99.90;;;;;;5058369;28;20090;-36
2023/12/20 06:55:15;;;;;;;15.23;2.75;;;7.90;99.90;;;;;;5059042;28;20693;-37
2023/12/20 06:57:41;;;;;;;10.43;2.13;;;7.90;99.90;;;;;;5055033;28;20032;-38
2023/12/20 07:00:08;;;;;;;10.55;2.30;;;7.90;99.90;;;;;;5058518;28;20024;-37
2023/12/20 07:02:34;;;;;;;7.93;2.03;;;7.90;99.90;;;;;;5061760;28;20028;-36
2023/12/20 07:04:59;;;;;;;15.45;2.97;;;8.00;99.90;;;;;;5061978;28;20048;-35
2023/12/20 07:07:26;;;;;;;9.20;2.85;;;7.90;99.90;;;;;;5060917;28;20028;-38
2023/12/20 07:09:58;;;;;;;13.60;3.75;;;7.90;99.90;;;;;;5061898;28;20040;-36
2023/12/20 07:12:23;;;;;;;10.93;2.85;;;8.00;99.90;;;;;;5061096;28;20554;-36
2023/12/20 07:14:49;;;;;;;12.20;2.97;;;8.00;99.90;;;;;;5060735;28;20038;-37
2023/12/20 07:17:15;;;;;;;9.27;2.55;;;8.00;99.90;;;;;;5061452;28;20033;-34
2023/12/20 07:19:41;;;;;;;11.20;2.28;;;7.90;99.90;;;;;;5061911;28;20035;-36
2023/12/20 07:22:07;;;;;;;10.02;2.65;;;7.90;99.90;;;;;;5061150;28;20144;-35
2023/12/20 07:24:33;;;;;;;7.20;2.47;;;8.00;99.90;;;;;;5061645;28;20053;-45
2023/12/20 07:27:02;;;;;;;11.65;2.55;;;8.00;99.90;;;;;;5061264;28;20048;-36
2023/12/20 07:29:28;;;;;;;6.35;2.20;;;8.00;99.90;;;;;;5061329;28;20028;-35
2023/12/20 07:31:54;;;;;;;8.60;2.55;;;8.00;99.90;;;;;;5061115;28;20470;-36
2023/12/20 07:34:20;;;;;;;9.10;2.38;;;8.00;99.90;;;;;;5062131;28;20029;-36
2023/12/20 07:36:46;;;;;;;13.45;2.28;;;8.00;99.90;;;;;;5061781;28;20029;-36
2023/12/20 07:39:12;;;;;;;9.10;3.05;;;8.00;99.90;;;;;;5062157;28;20809;-35
2023/12/20 07:41:38;;;;;;;9.20;2.30;;;8.00;99.90;;;;;;5061359;28;20031;-36
2023/12/20 07:44:05;;;;;;;11.23;3.03;;;8.00;99.90;;;;;;5061256;28;20059;-36
2023/12/20 07:46:30;;;;;;;11.70;2.70;;;8.00;99.90;;;;;;5061715;28;20036;-35
2023/12/20 07:48:56;;;;;;;12.90;2.75;;;8.00;99.90;;;;;;5060951;28;20035;-35
2023/12/20 07:51:22;;;;;;;6.43;2.30;;;8.00;99.90;;;;;;5061643;28;20848;-37
2023/12/20 07:53:47;;;;;;;8.05;2.30;;;8.10;99.90;;;;;;5061843;28;20403;-37
2023/12/20 07:56:16;;;;;;;15.98;2.67;;;8.10;99.90;;;;;;5061407;28;20834;-37
2023/12/20 07:58:42;;;;;;;10.93;2.85;;;8.10;99.90;;;;;;5061751;28;20020;-37
2023/12/20 08:01:08;;;;;;;8.05;2.17;;;8.10;99.90;;;;;;5061539;28;20160;-36
2023/12/20 08:03:34;;;;;;;8.75;2.50;;;8.10;99.90;;;;;;4942556;28;20387;-36
2023/12/20 08:06:00;;;;;;;8.65;2.33;;;8.10;99.90;;;;;;4962105;28;20036;-37
2023/12/20 08:08:26;;;;;;;9.63;2.20;;;8.10;99.90;;;;;;5030106;28;20021;-37
2023/12/20 08:10:52;;;;;;;10.70;2.58;;;8.20;99.90;;;;;;4959125;28;20035;-41
2023/12/20 08:13:18;;;;;;;10.65;2.15;;;8.20;99.90;;;;;;5060661;28;20035;-36
2023/12/20 08:15:43;;;;;;;7.82;2.30;;;8.20;99.90;;;;;;5060467;28;20737;-36
2023/12/20 08:18:09;;;;;;;10.55;2.30;;;8.20;99.90;;;;;;5060053;28;20043;-36
2023/12/20 08:20:34;;;;;;;9.48;2.55;;;8.20;99.90;;;;;;5060894;28;20025;-36
2023/12/20 08:23:00;;;;;;;12.45;2.97;;;8.20;99.90;;;;;;5061759;28;20028;-36
2023/12/20 08:25:27;;;;;;;10.18;2.60;;;8.30;99.90;;;;;;5060246;28;20040;-37
2023/12/20 08:27:52;;;;;;;6.32;2.17;;;8.20;99.90;;;;;;5060683;28;20037;-36
2023/12/20 08:30:21;;;;;;;10.90;2.38;;;8.30;99.90;;;;;;5060836;28;20122;-36
2023/12/20 08:32:48;;;;;;;11.02;2.70;;;8.30;99.90;;;;;;4961366;28;20550;-36
2023/12/20 08:35:13;;;;;;;14.50;3.05;;;8.30;99.90;;;;;;5043165;28;20065;-37
2023/12/20 08:37:39;;;;;;;10.60;2.30;;;8.30;99.90;;;;;;5059924;28;20114;-36
2023/12/20 08:40:07;;;;;;;10.70;2.22;;;8.30;99.90;;;;;;5060075;28;20035;-37
2023/12/20 08:42:33;;;;;;;11.05;2.97;;;8.30;99.90;;;;;;5044542;28;20154;-37
2023/12/20 08:44:59;;;;;;;9.63;2.30;;;8.30;99.90;;;;;;4945704;28;20824;-36
2023/12/20 08:47:24;;;;;;;8.75;2.53;;;8.40;99.90;;;;;;5059966;28;20112;-36
2023/12/20 08:49:50;;;;;;;9.95;2.47;;;8.30;99.90;;;;;;5060229;28;20028;-36
2023/12/20 08:52:16;;;;;;;8.57;2.75;;;8.30;99.90;;;;;;5059945;28;20040;-37
2023/12/20 08:54:42;;;;;;;14.73;3.22;;;8.30;99.90;;;;;;5060163;28;20482;-37
2023/12/20 08:57:07;;;;;;;10.63;2.85;;;8.40;99.90;;;;;;5060282;28;20021;-37
2023/12/20 08:59:33;;;;;;;11.48;2.60;;;8.40;99.90;;;;;;5059090;28;20858;-37
2023/12/20 09:01:59;;;;;;;12.60;2.58;;;8.40;99.90;;;;;;5060124;28;20045;-36
2023/12/20 09:04:25;;;;;;;10.75;3.38;;;8.40;99.90;;;;;;5060540;28;20039;-36
2023/12/20 09:06:50;;;;;;;13.90;2.88;;;8.40;99.90;;;;;;5059129;28;20031;-37
2023/12/20 09:09:16;;;;;;;13.50;2.70;;;8.40;99.90;;;;;;5060408;28;20032;-37
2023/12/20 09:11:42;;;;;;;10.77;2.83;;;8.40;99.90;;;;;;5060085;28;20024;-37
2023/12/20 09:14:07;;;;;;;12.93;2.78;;;8.40;99.90;;;;;;5059679;28;20787;-36
2023/12/20 09:16:33;;;;;;;10.95;2.55;;;8.40;99.90;;;;;;5059375;28;20036;-36
2023/12/20 09:18:59;;;;;;;8.23;2.10;;;8.40;99.90;;;;;;5059975;28;20033;-36
2023/12/20 09:21:24;;;;;;;9.38;2.72;;;8.40;99.90;;;;;;5058730;28;20040;-36
2023/12/20 09:23:50;;;;;;;11.05;2.35;;;8.40;99.90;;;;;;5059345;28;20043;-36
2023/12/20 09:26:15;;;;;;;13.73;2.75;;;8.40;99.90;;;;;;5059793;28;20877;-36
2023/12/20 09:28:41;;;;;;;8.20;2.30;;;8.30;99.90;;;;;;5058522;28;20030;-35
2023/12/20 09:31:07;;;;;;;10.38;2.60;;;8.30;99.90;;;;;;5059470;28;20142;-36
2023/12/20 09:33:33;;;;;;;12.43;2.45;;;8.30;99.90;;;;;;5059408;28;20033;-36
2023/12/20 09:35:59;;;;;;;11.98;2.80;;;8.30;99.90;;;;;;5058996;28;20109;-36
2023/12/20 09:38:28;;;;;;;11.30;2.60;;;8.20;99.90;;;;;;5059692;28;20124;-37
2023/12/20 09:40:55;;;;;;;9.30;2.58;;;8.20;99.90;;;;;;5050768;28;20428;-36
2023/12/20 09:43:23;;;;;;;8.57;2.63;;;8.20;99.90;;;;;;4952186;28;20048;-40
2023/12/20 09:45:52;;;;;;;9.95;2.45;;;8.20;99.90;;;;;;4941121;28;20035;-36
2023/12/20 09:48:19;;;;;;;8.55;2.40;;;8.20;99.90;;;;;;5060540;28;20017;-37
2023/12/20 09:50:45;;;;;;;10.57;2.42;;;8.10;99.90;;;;;;5073156;28;20074;-36
2023/12/20 09:53:15;;;;;;;11.35;2.25;;;8.20;99.90;;;;;;5059885;28;20511;-36
2023/12/20 09:55:42;;;;;;;11.05;2.53;;;8.20;99.90;;;;;;5058982;28;20113;-36
2023/12/20 09:58:08;;;;;;;8.55;2.28;;;8.20;99.90;;;;;;5058409;28;20024;-36
2023/12/20 10:00:35;;;;;;;16.10;3.03;;;8.20;99.90;;;;;;5058684;28;20099;-36
2023/12/20 10:03:01;;;;;;;10.70;2.97;;;8.20;99.90;;;;;;5057023;28;20028;-37
2023/12/20 10:05:31;;;;;;;12.15;2.53;;;8.20;99.90;;;;;;5058712;28;20036;-36
2023/12/20 10:07:57;;;;;;;9.98;2.70;;;8.20;99.90;;;;;;5059119;28;20020;-36
2023/12/20 10:10:23;;;;;;;12.90;2.75;;;8.30;99.90;;;;;;5058633;28;20818;-35
2023/12/20 10:13:10;;;;;;;11.68;2.90;;;8.30;99.90;;;;;;5058909;28;20020;-36
2023/12/20 10:15:36;;;;;;;11.82;2.92;;;8.30;99.90;;;;;;5058591;28;20028;-36
2023/12/20 10:18:05;;;;;;;10.25;2.38;;;8.30;99.90;;;;;;5057170;28;20535;-35
2023/12/20 10:20:41;;;;;;;16.55;2.92;;;8.40;99.90;;;;;;5058566;28;20035;-36
2023/12/20 10:23:06;;;;;;;8.95;2.53;;;8.40;99.90;;;;;;5058870;28;20035;-36
2023/12/20 10:25:32;;;;;;;17.30;2.88;;;8.40;99.90;;;;;;5058523;28;20036;-36
2023/12/20 10:28:17;;;;;;;15.65;3.25;;;8.40;99.90;;;;;;5059100;28;20052;-36
2023/12/20 10:30:43;;;;;;;9.32;2.33;;;8.50;99.90;;;;;;5058528;28;20071;-39
2023/12/20 10:33:09;;;;;;;17.13;3.22;;;8.50;99.90;;;;;;5059284;28;20126;-37
2023/12/20 10:35:38;;;;;;;10.50;2.70;;;8.50;99.90;;;;;;5061356;28;20072;-36
2023/12/20 10:38:06;;;;;;;13.88;2.97;;;8.60;99.90;;;;;;5062212;28;20017;-36
2023/12/20 10:40:36;;;;;;;8.35;2.22;;;8.60;99.90;;;;;;5062862;28;20052;-36
2023/12/20 10:43:02;;;;;;;8.88;2.72;;;8.70;99.90;;;;;;5062722;28;20032;-36
2023/12/20 10:45:28;;;;;;;6.57;2.08;;;8.70;99.90;;;;;;5062552;28;20043;-36
2023/12/20 10:47:53;;;;;;;8.80;1.92;;;8.70;99.90;;;;;;5063507;28;20029;-39
2023/12/20 10:50:20;;;;;;;6.00;2.10;;;8.70;99.90;;;;;;5062642;28;20032;-39
2023/12/20 10:52:47;;;;;;;7.32;1.80;;;8.70;99.90;;;;;;5062645;28;20139;-37
2023/12/20 10:55:13;;;;;;;10.52;2.40;;;8.70;99.90;;;;;;5062792;28;20028;-36
2023/12/20 10:57:39;;;;;;;11.95;2.72;;;8.70;99.90;;;;;;5062591;28;20507;-37
2023/12/20 11:00:09;;;;;;;8.27;2.30;;;8.70;99.90;;;;;;5062483;28;20028;-36
2023/12/20 11:02:39;;;;;;;7.65;2.15;;;8.80;99.90;;;;;;5062408;28;20502;-37
2023/12/20 11:05:30;;;;;;;6.20;1.90;;;8.80;99.90;;;;;;5061620;28;20047;-36
2023/12/20 11:08:22;;;;;;;8.55;2.05;;;8.80;99.90;;;;;;5055348;28;20033;-36
2023/12/20 11:11:06;;;;;;;8.33;1.97;;;8.80;99.90;;;;;;5060659;28;20036;-36
2023/12/20 11:13:37;;;;;;;6.07;1.60;;;8.90;99.90;;;;;;5061760;28;20052;-36
2023/12/20 11:16:03;;;;;;;4.53;1.50;;;8.90;99.90;;;;;;5061829;28;20024;-36
2023/12/20 11:18:33;;;;;;;5.22;2.42;;;8.90;99.90;;;;;;5062040;28;20878;-36
2023/12/20 11:21:05;;;;;;;5.13;1.48;;;8.90;99.90;;;;;;5060912;28;20024;-35
2023/12/20 11:23:34;;;;;;;5.88;1.40;;;9.00;99.90;;;;;;5061943;28;20024;-44
2023/12/20 11:26:01;;;;;;;4.65;1.52;;;9.00;99.90;;;;;;5062042;28;20056;-44
2023/12/20 11:28:27;;;;;;;6.30;1.63;;;9.10;99.90;;;;;;5061994;28;20024;-44
2023/12/20 11:30:59;;;;;;;6.38;1.75;;;9.10;99.90;;;;;;5061030;28;20111;-44
2023/12/20 11:33:48;;;;;;;7.63;2.15;;;9.20;99.90;;;;;;5060423;28;20109;-44
2023/12/20 11:36:20;;;;;;;7.28;1.60;;;9.20;99.90;;;;;;5061352;28;20136;-44
2023/12/20 11:38:59;;;;;;;4.35;1.63;;;9.20;99.90;;;;;;5063083;28;20036;-45
2023/12/20 11:41:26;;;;;;;4.22;1.80;;;9.30;99.90;;;;;;5060364;28;20589;-46
2023/12/20 11:43:55;;;;;;;6.63;1.88;;;9.30;99.90;;;;;;5061234;28;20040;-44
2023/12/20 11:46:20;;;;;;;6.60;2.00;;;9.30;99.90;;;;;;5060761;28;20090;-43
2023/12/20 11:48:47;;;;;;;8.70;2.50;;;9.40;99.90;;;;;;5061347;28;20028;-43
2023/12/20 11:51:13;;;;;;;8.27;2.13;;;9.40;99.90;;;;;;5061090;28;20032;-42
2023/12/20 11:53:40;;;;;;;11.57;2.85;;;9.40;99.90;;;;;;5060721;28;20133;-43
2023/12/20 11:56:07;;;;;;;9.07;2.53;;;9.40;99.90;;;;;;5060617;28;20044;-43
2023/12/20 11:58:33;;;;;;;7.10;1.90;;;9.50;99.90;;;;;;5061314;28;20031;-43
2023/12/20 12:00:59;;;;;;;11.52;2.42;;;9.50;99.90;;;;;;5060951;28;20237;-43
2023/12/20 12:03:25;;;;;;;9.80;3.13;;;9.50;99.90;;;;;;5060529;28;20792;-43
2023/12/20 12:05:51;;;;;;;7.63;2.05;;;9.50;99.90;;;;;;5060678;28;20029;-43
2023/12/20 12:08:17;;;;;;;6.18;1.92;;;9.50;99.90;;;;;;5061577;28;20024;-43
2023/12/20 12:10:45;;;;;;;10.90;2.40;;;9.60;99.90;;;;;;5059772;28;20845;-44
2023/12/20 12:13:11;;;;;;;6.72;2.08;;;9.50;99.90;;;;;;5061682;28;20021;-44
2023/12/20 12:15:37;;;;;;;6.68;1.63;;;9.60;99.90;;;;;;5061469;28;20032;-44
2023/12/20 12:18:04;;;;;;;9.02;2.10;;;9.60;99.90;;;;;;5060271;28;20082;-45
2023/12/20 12:20:30;;;;;;;8.68;1.85;;;9.60;99.90;;;;;;5061593;28;20074;-44
2023/12/20 12:23:04;;;;;;;5.28;1.42;;;9.60;99.90;;;;;;5060033;28;20050;-43
2023/12/20 12:25:31;;;;;;;5.88;1.80;;;9.70;99.90;;;;;;5059732;28;20507;-43
2023/12/20 12:27:58;;;;;;;6.72;2.10;;;9.70;99.90;;;;;;5060902;28;20135;-45
2023/12/20 12:30:23;;;;;;;8.48;2.20;;;9.70;99.90;;;;;;5059846;28;20024;-44
2023/12/20 12:32:53;;;;;;;9.48;1.98;;;9.80;99.90;;;;;;5060572;28;20029;-44
2023/12/20 12:35:19;;;;;;;7.78;1.83;;;9.80;99.90;;;;;;5040250;28;20060;-44
2023/12/20 12:37:45;;;;;;;9.50;1.98;;;9.80;99.90;;;;;;5054208;28;20056;-44
2023/12/20 12:40:16;;;;;;;5.90;1.48;;;9.80;99.90;;;;;;5061257;28;20135;-44
2023/12/20 12:42:43;;;;;;;10.50;2.25;;;9.80;99.90;;;;;;5060765;28;20375;-45
2023/12/20 12:45:09;;;;;;;6.22;1.65;;;9.90;99.90;;;;;;5059644;28;20622;-44
2023/12/20 12:47:35;;;;;;;6.60;1.90;;;9.80;99.90;;;;;;5060291;28;20035;-45
2023/12/20 12:50:01;;;;;;;9.32;2.00;;;9.80;99.90;;;;;;5060690;28;20107;-44